Port Imperial New Jersey — WBR3133 — position and weather

sailwx.info

Track history (hours):
 
Tides and Currents Weather Stations Pressure Air Temp Water Temp Dewpoint Dewpoint Depression Visibility Wind Speed Wind Dir Waves Ship Positions

Port Imperial New Jersey

Owner: PORT IMPERIAL FERRY CORP, WEEHAWKEN, NJ. More information available from US FCC via Universal Licensing System and Coast Guard Vessel Documentation Center.

Last reported at 2017-Nov-23 00:02 UTC. Time now 2017-Nov-25 04:07 UTC.
Position N 40°44' W 074°02'.

Length 31 m.

Type: Passenger vessel. MMSI: 366990550.

Date/timePositionNaut miles runAvg speedWind from/ knotsBaromVisibWave heightAir tempDewpointWater temp
2017-Nov-23 00:02N 40°44' W 074°02'0 3.3
2017-Nov-23 00:00N 40°44' W 074°02'1 2.4
2017-Nov-22 23:31N 40°43' W 074°01'1 2.5
2017-Nov-22 23:00N 40°44' W 074°02'1 2.4
2017-Nov-22 22:31N 40°43' W 074°01'1 2.4
2017-Nov-22 22:00N 40°44' W 074°02'1 2.5
2017-Nov-22 21:30N 40°43' W 074°01'1 2.5
2017-Nov-22 21:00N 40°44' W 074°02'1 2.5
2017-Nov-22 20:31N 40°43' W 074°01'0 0.2
2017-Nov-22 20:00N 40°43' W 074°01'  
2017-Nov-18 02:11N 40°44' W 074°02'1 7.0
2017-Nov-18 02:00N 40°43' W 074°01'0 0.1
2017-Nov-18 01:30N 40°43' W 074°01'0 0.1
2017-Nov-18 01:00N 40°43' W 074°01'1 2.6
2017-Nov-18 00:31N 40°44' W 074°02'2 3.2
2017-Nov-18 00:00N 40°42' W 074°01'1 1.7
2017-Nov-17 23:30N 40°42' W 074°00'2 4.3
2017-Nov-17 23:01N 40°44' W 074°02'1 2.3
2017-Nov-17 22:31N 40°43' W 074°01'1 2.3
2017-Nov-17 22:00N 40°42' W 074°00'2 3.9
2017-Nov-17 21:30N 40°44' W 074°01'1 1.2
2017-Nov-17 21:01N 40°43' W 074°01'1 1.6
2017-Nov-17 20:30N 40°44' W 074°01'1 2.1
2017-Nov-17 20:00N 40°43' W 074°01'1 1.7
2017-Nov-17 19:30N 40°44' W 074°01'1 1.6
2017-Nov-17 19:00N 40°43' W 074°01'4 0.9
2017-Nov-17 15:08N 40°47' W 074°01'0 2.0
2017-Nov-17 15:00N 40°46' W 074°00'4 8.8
2017-Nov-17 14:30N 40°42' W 074°00'1 1.6
2017-Nov-17 14:00N 40°42' W 074°01'2 3.7
2017-Nov-17 13:30N 40°44' W 074°02'2 4.7
2017-Nov-17 13:00N 40°42' W 074°01'2 3.9
2017-Nov-17 12:30N 40°44' W 074°01'0 0.7
2017-Nov-17 12:00N 40°44' W 074°02'2 4.6
2017-Nov-17 11:30N 40°46' W 074°01'0 0.0
2017-Nov-17 00:41N 40°46' W 074°01'211.7
2017-Nov-17 00:30N 40°44' W 074°02'2 3.2
2017-Nov-17 00:00N 40°43' W 074°02'1 2.1
2017-Nov-16 23:30N 40°42' W 074°00'2 4.3
2017-Nov-16 23:00N 40°44' W 074°02'1 2.0
2017-Nov-16 22:31N 40°43' W 074°01'1 2.5
2017-Nov-16 22:01N 40°42' W 074°00'2 4.0
2017-Nov-16 21:30N 40°44' W 074°01'1 1.6
2017-Nov-16 21:00N 40°43' W 074°02'1 1.8
2017-Nov-16 20:31N 40°44' W 074°01'1 2.1
2017-Nov-16 20:00N 40°43' W 074°01'1 1.8
2017-Nov-16 19:30N 40°44' W 074°01'1 1.2
2017-Nov-16 19:01N 40°43' W 074°01'3 1.0
2017-Nov-16 15:28N 40°47' W 074°01'1 2.9
2017-Nov-16 15:00N 40°45' W 074°01'3 6.6
2017-Nov-16 14:30N 40°42' W 074°00'1 1.4
2017-Nov-16 14:00N 40°42' W 074°01'2 4.0
2017-Nov-16 13:30N 40°44' W 074°02'2 4.6
2017-Nov-16 13:00N 40°42' W 074°01'1 2.1
2017-Nov-16 12:31N 40°43' W 074°02'1 2.8
2017-Nov-16 12:00N 40°44' W 074°02'2 4.6
2017-Nov-16 11:30N 40°46' W 074°01'0 0.0
2017-Nov-16 11:01N 40°46' W 074°01'0 0.0
2017-Nov-16 10:31N 40°46' W 074°01'0 0.0
2017-Nov-16 10:01N 40°46' W 074°01'1 0.1
2017-Nov-16 00:38N 40°46' W 074°01'213.1
2017-Nov-16 00:31N 40°44' W 074°02'1 2.8
2017-Nov-16 00:01N 40°43' W 074°02'1 2.1
2017-Nov-15 23:30N 40°42' W 074°00'2 4.3
2017-Nov-15 23:01N 40°44' W 074°02'1 2.7
2017-Nov-15 22:30N 40°43' W 074°02'1 2.2
2017-Nov-15 22:01N 40°42' W 074°00'2 4.3
2017-Nov-15 21:31N 40°44' W 074°02'1 2.4
2017-Nov-15 21:00N 40°43' W 074°01'1 2.4
2017-Nov-15 20:30N 40°44' W 074°02'1 2.2
2017-Nov-15 20:00N 40°43' W 074°01'1 2.1
2017-Nov-15 19:30N 40°44' W 074°02'1 1.2
2017-Nov-15 19:00N 40°43' W 074°01'3 0.8
2017-Nov-15 15:10N 40°47' W 074°01'1 4.2
2017-Nov-15 15:00N 40°46' W 074°01'4 7.8
2017-Nov-15 14:30N 40°42' W 074°00'1 1.7
2017-Nov-15 14:01N 40°42' W 074°01'2 3.8
2017-Nov-15 13:30N 40°44' W 074°02'2 4.7
2017-Nov-15 13:00N 40°42' W 074°01'1 2.0
2017-Nov-15 12:30N 40°42' W 074°02'2 3.1
2017-Nov-15 12:00N 40°44' W 074°02'2 4.6
2017-Nov-15 11:30N 40°46' W 074°01'0 0.0
2017-Nov-15 00:41N 40°46' W 074°01'211.3
2017-Nov-15 00:30N 40°44' W 074°02'2 3.2
2017-Nov-15 00:00N 40°42' W 074°01'1 1.8
2017-Nov-14 23:30N 40°42' W 074°00'2 4.2
2017-Nov-14 23:01N 40°44' W 074°02'1 2.3
2017-Nov-14 22:30N 40°43' W 074°01'1 2.1
2017-Nov-14 22:00N 40°42' W 074°00'2 4.3
2017-Nov-14 21:30N 40°44' W 074°02'1 2.4
2017-Nov-14 21:01N 40°43' W 074°01'1 2.4
2017-Nov-14 20:31N 40°44' W 074°02'1 2.3
2017-Nov-14 20:00N 40°43' W 074°02'1 2.3
2017-Nov-14 19:31N 40°44' W 074°02'1 2.1
2017-Nov-14 19:00N 40°43' W 074°01'4 1.0
2017-Nov-14 15:28N 40°47' W 074°01'3 5.9
2017-Nov-14 15:00N 40°44' W 074°02'1 1.7
2017-Nov-14 14:30N 40°43' W 074°01'1 1.8
2017-Nov-14 14:00N 40°44' W 074°02'2 4.2
2017-Nov-14 13:31N 40°42' W 074°00'1 2.2
2017-Nov-14 13:00N 40°43' W 074°02'1 2.7
2017-Nov-14 12:30N 40°44' W 074°02'2 4.3
2017-Nov-14 12:00N 40°42' W 074°00'1 1.9
2017-Nov-14 11:30N 40°42' W 074°01'2 3.3
2017-Nov-14 11:00N 40°44' W 074°02'0 0.1
2017-Nov-14 10:30N 40°44' W 074°02'0 0.0
2017-Nov-14 00:30N 40°44' W 074°02'1 1.8
2017-Nov-14 00:00N 40°43' W 074°01'1 2.6
2017-Nov-13 23:30N 40°42' W 074°00'2 4.1
2017-Nov-13 23:00N 40°44' W 074°01'1 1.7
2017-Nov-13 22:30N 40°43' W 074°01'1 2.6
2017-Nov-13 22:00N 40°42' W 074°00'  
Track history (hours):
 
Tides and Currents Weather Stations Pressure Air Temp Water Temp Dewpoint Dewpoint Depression Visibility Wind Speed Wind Dir Waves Ship Positions

Port Imperial New Jersey

Owner: PORT IMPERIAL FERRY CORP, WEEHAWKEN, NJ. More information available from US FCC via Universal Licensing System and Coast Guard Vessel Documentation Center.

Last reported at 2017-Nov-23 00:02 UTC. Time now 2017-Nov-25 04:07 UTC.
Position N 40°44' W 074°02'.

Length 31 m.

Type: Passenger vessel. MMSI: 366990550.

Date/timePositionNaut miles runAvg speedWind from/ knotsBaromVisibWave heightAir tempDewpointWater temp
2017-Nov-23 00:02N 40°44' W 074°02'0 3.3
2017-Nov-23 00:00N 40°44' W 074°02'1 2.4
2017-Nov-22 23:31N 40°43' W 074°01'1 2.5
2017-Nov-22 23:00N 40°44' W 074°02'1 2.4
2017-Nov-22 22:31N 40°43' W 074°01'1 2.4
2017-Nov-22 22:00N 40°44' W 074°02'1 2.5
2017-Nov-22 21:30N 40°43' W 074°01'1 2.5
2017-Nov-22 21:00N 40°44' W 074°02'1 2.5
2017-Nov-22 20:31N 40°43' W 074°01'0 0.2
2017-Nov-22 20:00N 40°43' W 074°01'  
2017-Nov-18 02:11N 40°44' W 074°02'1 7.0
2017-Nov-18 02:00N 40°43' W 074°01'0 0.1
2017-Nov-18 01:30N 40°43' W 074°01'0 0.1
2017-Nov-18 01:00N 40°43' W 074°01'1 2.6
2017-Nov-18 00:31N 40°44' W 074°02'2 3.2
2017-Nov-18 00:00N 40°42' W 074°01'1 1.7
2017-Nov-17 23:30N 40°42' W 074°00'2 4.3
2017-Nov-17 23:01N 40°44' W 074°02'1 2.3
2017-Nov-17 22:31N 40°43' W 074°01'1 2.3
2017-Nov-17 22:00N 40°42' W 074°00'2 3.9
2017-Nov-17 21:30N 40°44' W 074°01'1 1.2
2017-Nov-17 21:01N 40°43' W 074°01'1 1.6
2017-Nov-17 20:30N 40°44' W 074°01'1 2.1
2017-Nov-17 20:00N 40°43' W 074°01'1 1.7
2017-Nov-17 19:30N 40°44' W 074°01'1 1.6
2017-Nov-17 19:00N 40°43' W 074°01'4 0.9
2017-Nov-17 15:08N 40°47' W 074°01'0 2.0
2017-Nov-17 15:00N 40°46' W 074°00'4 8.8
2017-Nov-17 14:30N 40°42' W 074°00'1 1.6
2017-Nov-17 14:00N 40°42' W 074°01'2 3.7
2017-Nov-17 13:30N 40°44' W 074°02'2 4.7
2017-Nov-17 13:00N 40°42' W 074°01'2 3.9
2017-Nov-17 12:30N 40°44' W 074°01'0 0.7
2017-Nov-17 12:00N 40°44' W 074°02'2 4.6
2017-Nov-17 11:30N 40°46' W 074°01'0 0.0
2017-Nov-17 00:41N 40°46' W 074°01'211.7
2017-Nov-17 00:30N 40°44' W 074°02'2 3.2
2017-Nov-17 00:00N 40°43' W 074°02'1 2.1
2017-Nov-16 23:30N 40°42' W 074°00'2 4.3
2017-Nov-16 23:00N 40°44' W 074°02'1 2.0
2017-Nov-16 22:31N 40°43' W 074°01'1 2.5
2017-Nov-16 22:01N 40°42' W 074°00'2 4.0
2017-Nov-16 21:30N 40°44' W 074°01'1 1.6
2017-Nov-16 21:00N 40°43' W 074°02'1 1.8
2017-Nov-16 20:31N 40°44' W 074°01'1 2.1
2017-Nov-16 20:00N 40°43' W 074°01'1 1.8
2017-Nov-16 19:30N 40°44' W 074°01'1 1.2
2017-Nov-16 19:01N 40°43' W 074°01'3 1.0
2017-Nov-16 15:28N 40°47' W 074°01'1 2.9
2017-Nov-16 15:00N 40°45' W 074°01'3 6.6
2017-Nov-16 14:30N 40°42' W 074°00'1 1.4
2017-Nov-16 14:00N 40°42' W 074°01'2 4.0
2017-Nov-16 13:30N 40°44' W 074°02'2 4.6
2017-Nov-16 13:00N 40°42' W 074°01'1 2.1
2017-Nov-16 12:31N 40°43' W 074°02'1 2.8
2017-Nov-16 12:00N 40°44' W 074°02'2 4.6
2017-Nov-16 11:30N 40°46' W 074°01'0 0.0
2017-Nov-16 11:01N 40°46' W 074°01'0 0.0
2017-Nov-16 10:31N 40°46' W 074°01'0 0.0
2017-Nov-16 10:01N 40°46' W 074°01'1 0.1
2017-Nov-16 00:38N 40°46' W 074°01'213.1
2017-Nov-16 00:31N 40°44' W 074°02'1 2.8
2017-Nov-16 00:01N 40°43' W 074°02'1 2.1
2017-Nov-15 23:30N 40°42' W 074°00'2 4.3
2017-Nov-15 23:01N 40°44' W 074°02'1 2.7
2017-Nov-15 22:30N 40°43' W 074°02'1 2.2
2017-Nov-15 22:01N 40°42' W 074°00'2 4.3
2017-Nov-15 21:31N 40°44' W 074°02'1 2.4
2017-Nov-15 21:00N 40°43' W 074°01'1 2.4
2017-Nov-15 20:30N 40°44' W 074°02'1 2.2
2017-Nov-15 20:00N 40°43' W 074°01'1 2.1
2017-Nov-15 19:30N 40°44' W 074°02'1 1.2
2017-Nov-15 19:00N 40°43' W 074°01'3 0.8
2017-Nov-15 15:10N 40°47' W 074°01'1 4.2
2017-Nov-15 15:00N 40°46' W 074°01'4 7.8
2017-Nov-15 14:30N 40°42' W 074°00'1 1.7
2017-Nov-15 14:01N 40°42' W 074°01'2 3.8
2017-Nov-15 13:30N 40°44' W 074°02'2 4.7
2017-Nov-15 13:00N 40°42' W 074°01'1 2.0
2017-Nov-15 12:30N 40°42' W 074°02'2 3.1
2017-Nov-15 12:00N 40°44' W 074°02'2 4.6
2017-Nov-15 11:30N 40°46' W 074°01'0 0.0
2017-Nov-15 00:41N 40°46' W 074°01'211.3
2017-Nov-15 00:30N 40°44' W 074°02'2 3.2
2017-Nov-15 00:00N 40°42' W 074°01'1 1.8
2017-Nov-14 23:30N 40°42' W 074°00'2 4.2
2017-Nov-14 23:01N 40°44' W 074°02'1 2.3
2017-Nov-14 22:30N 40°43' W 074°01'1 2.1
2017-Nov-14 22:00N 40°42' W 074°00'2 4.3
2017-Nov-14 21:30N 40°44' W 074°02'1 2.4
2017-Nov-14 21:01N 40°43' W 074°01'1 2.4
2017-Nov-14 20:31N 40°44' W 074°02'1 2.3
2017-Nov-14 20:00N 40°43' W 074°02'1 2.3
2017-Nov-14 19:31N 40°44' W 074°02'1 2.1
2017-Nov-14 19:00N 40°43' W 074°01'4 1.0
2017-Nov-14 15:28N 40°47' W 074°01'3 5.9
2017-Nov-14 15:00N 40°44' W 074°02'1 1.7
2017-Nov-14 14:30N 40°43' W 074°01'1 1.8
2017-Nov-14 14:00N 40°44' W 074°02'2 4.2
2017-Nov-14 13:31N 40°42' W 074°00'1 2.2
2017-Nov-14 13:00N 40°43' W 074°02'1 2.7
2017-Nov-14 12:30N 40°44' W 074°02'2 4.3
2017-Nov-14 12:00N 40°42' W 074°00'1 1.9
2017-Nov-14 11:30N 40°42' W 074°01'2 3.3
2017-Nov-14 11:00N 40°44' W 074°02'0 0.1
2017-Nov-14 10:30N 40°44' W 074°02'0 0.0
2017-Nov-14 00:30N 40°44' W 074°02'1 1.8
2017-Nov-14 00:00N 40°43' W 074°01'1 2.6
2017-Nov-13 23:30N 40°42' W 074°00'2 4.1
2017-Nov-13 23:00N 40°44' W 074°01'1 1.7
2017-Nov-13 22:30N 40°43' W 074°01'1 2.6
2017-Nov-13 22:00N 40°42' W 074°00'  

Dump ship's entire track history